sensor_id;sensor_type;location;lat;lon;timestamp;temperature;humidity
27368;DHT22;14839;48.106;11.618;2022-09-29T04:01:38;7.40;94.60
27368;DHT22;14839;48.106;11.618;2022-09-29T04:04:04;7.40;94.60
27368;DHT22;14839;48.106;11.618;2022-09-29T04:06:32;7.40;94.60
27368;DHT22;14839;48.106;11.618;2022-09-29T04:09:00;7.40;94.60
27368;DHT22;14839;48.106;11.618;2022-09-29T04:11:27;7.50;94.60
27368;DHT22;14839;48.106;11.618;2022-09-29T04:13:52;7.40;94.60
27368;DHT22;14839;48.106;11.618;2022-09-29T04:16:18;7.40;94.60
27368;DHT22;14839;48.106;11.618;2022-09-29T04:18:44;7.40;94.60
27368;DHT22;14839;48.106;11.618;2022-09-29T04:21:10;7.40;94.60
27368;DHT22;14839;48.106;11.618;2022-09-29T04:23:36;7.40;94.60
27368;DHT22;14839;48.106;11.618;2022-09-29T04:26:03;7.50;94.60
27368;DHT22;14839;48.106;11.618;2022-09-29T04:28:33;7.50;94.60
27368;DHT22;14839;48.106;11.618;2022-09-29T04:30:59;7.50;94.60
27368;DHT22;14839;48.106;11.618;2022-09-29T04:33:24;7.50;94.60
27368;DHT22;14839;48.106;11.618;2022-09-29T04:35:50;7.40;94.60
27368;DHT22;14839;48.106;11.618;2022-09-29T04:38:16;7.40;94.60
27368;DHT22;14839;48.106;11.618;2022-09-29T04:40:42;7.30;94.60
27368;DHT22;14839;48.106;11.618;2022-09-29T04:43:07;7.10;94.60
27368;DHT22;14839;48.106;11.618;2022-09-29T04:45:33;7.20;94.60
27368;DHT22;14839;48.106;11.618;2022-09-29T04:47:59;7.30;94.60
27368;DHT22;14839;48.106;11.618;2022-09-29T04:50:25;7.30;94.60
27368;DHT22;14839;48.106;11.618;2022-09-29T04:52:50;7.30;94.60
27368;DHT22;14839;48.106;11.618;2022-09-29T04:55:16;7.50;94.60
27368;DHT22;14839;48.106;11.618;2022-09-29T04:57:42;7.50;94.60
27368;DHT22;14839;48.106;11.618;2022-09-29T05:00:09;7.60;94.60
27368;DHT22;14839;48.106;11.618;2022-09-29T05:02:36;7.60;94.60
27368;DHT22;14839;48.106;11.618;2022-09-29T05:05:02;7.60;94.60
27368;DHT22;14839;48.106;11.618;2022-09-29T05:07:28;7.50;94.60
27368;DHT22;14839;48.106;11.618;2022-09-29T05:09:54;7.40;94.60
27368;DHT22;14839;48.106;11.618;2022-09-29T05:12:19;7.40;94.60
27368;DHT22;14839;48.106;11.618;2022-09-29T05:14:52;7.30;94.60
27368;DHT22;14839;48.106;11.618;2022-09-29T05:17:18;7.20;94.60
27368;DHT22;14839;48.106;11.618;2022-09-29T05:19:43;7.20;94.60
27368;DHT22;14839;48.106;11.618;2022-09-29T05:22:09;7.10;94.60
27368;DHT22;14839;48.106;11.618;2022-09-29T05:24:35;7.10;94.60
27368;DHT22;14839;48.106;11.618;2022-09-29T05:27:00;7.10;94.60
27368;DHT22;14839;48.106;11.618;2022-09-29T05:29:26;7.10;94.60
27368;DHT22;14839;48.106;11.618;2022-09-29T05:31:52;7.10;94.60
27368;DHT22;14839;48.106;11.618;2022-09-29T05:34:17;7.20;94.60
27368;DHT22;14839;48.106;11.618;2022-09-29T05:36:43;7.30;94.60
27368;DHT22;14839;48.106;11.618;2022-09-29T05:39:09;7.30;94.60
27368;DHT22;14839;48.106;11.618;2022-09-29T05:41:35;7.30;94.60
27368;DHT22;14839;48.106;11.618;2022-09-29T05:44:00;7.30;94.60
27368;DHT22;14839;48.106;11.618;2022-09-29T05:46:26;7.30;94.60
27368;DHT22;14839;48.106;11.618;2022-09-29T05:48:52;7.30;94.60
27368;DHT22;14839;48.106;11.618;2022-09-29T05:51:21;7.20;94.60
27368;DHT22;14839;48.106;11.618;2022-09-29T05:53:47;7.20;94.60
27368;DHT22;14839;48.106;11.618;2022-09-29T05:56:15;7.30;94.60
27368;DHT22;14839;48.106;11.618;2022-09-29T05:58:42;7.30;94.60
27368;DHT22;14839;48.106;11.618;2022-09-29T06:01:12;7.20;94.60
27368;DHT22;14839;48.106;11.618;2022-09-29T06:03:38;7.30;94.60
27368;DHT22;14839;48.106;11.618;2022-09-29T06:06:09;7.30;94.60
27368;DHT22;14839;48.106;11.618;2022-09-29T06:08:36;7.40;94.60
27368;DHT22;14839;48.106;11.618;2022-09-29T06:11:23;7.40;94.60
27368;DHT22;14839;48.106;11.618;2022-09-29T06:13:50;7.50;94.60
27368;DHT22;14839;48.106;11.618;2022-09-29T06:16:18;7.50;94.60
27368;DHT22;14839;48.106;11.618;2022-09-29T06:18:45;7.60;94.60
27368;DHT22;14839;48.106;11.618;2022-09-29T06:21:16;7.50;94.60
27368;DHT22;14839;48.106;11.618;2022-09-29T06:23:42;7.50;94.60
27368;DHT22;14839;48.106;11.618;2022-09-29T06:26:10;7.50;94.60
27368;DHT22;14839;48.106;11.618;2022-09-29T06:28:36;7.70;94.60
27368;DHT22;14839;48.106;11.618;2022-09-29T06:31:11;7.70;94.60
27368;DHT22;14839;48.106;11.618;2022-09-29T06:33:37;7.80;94.60
27368;DHT22;14839;48.106;11.618;2022-09-29T06:39:32;8.00;94.60
27368;DHT22;14839;48.106;11.618;2022-09-29T06:41:58;8.30;94.60
27368;DHT22;14839;48.106;11.618;2022-09-29T06:47:37;8.40;94.60
27368;DHT22;14839;48.106;11.618;2022-09-29T06:50:03;8.50;94.60
27368;DHT22;14839;48.106;11.618;2022-09-29T06:52:29;8.60;94.60
27368;DHT22;14839;48.106;11.618;2022-09-29T06:54:54;8.60;94.60
27368;DHT22;14839;48.106;11.618;2022-09-29T06:57:20;8.70;94.60
27368;DHT22;14839;48.106;11.618;2022-09-29T06:59:46;8.80;94.60
27368;DHT22;14839;48.106;11.618;2022-09-29T07:02:11;8.90;94.60
27368;DHT22;14839;48.106;11.618;2022-09-29T07:04:37;8.90;94.60
27368;DHT22;14839;48.106;11.618;2022-09-29T07:07:03;9.00;94.60
27368;DHT22;14839;48.106;11.618;2022-09-29T07:09:28;9.00;94.60
27368;DHT22;14839;48.106;11.618;2022-09-29T07:11:55;8.90;94.60
27368;DHT22;14839;48.106;11.618;2022-09-29T07:14:22;9.10;94.60
27368;DHT22;14839;48.106;11.618;2022-09-29T07:16:48;9.10;94.60
27368;DHT22;14839;48.106;11.618;2022-09-29T07:19:15;9.10;94.60
27368;DHT22;14839;48.106;11.618;2022-09-29T07:21:42;9.10;94.60
27368;DHT22;14839;48.106;11.618;2022-09-29T07:24:08;9.20;94.60
27368;DHT22;14839;48.106;11.618;2022-09-29T07:26:34;9.20;94.60
27368;DHT22;14839;48.106;11.618;2022-09-29T07:29:00;9.30;94.60
27368;DHT22;14839;48.106;11.618;2022-09-29T07:31:26;9.30;94.60
27368;DHT22;14839;48.106;11.618;2022-09-29T07:33:52;9.30;94.60
27368;DHT22;14839;48.106;11.618;2022-09-29T07:36:19;9.20;94.60
27368;DHT22;14839;48.106;11.618;2022-09-29T07:38:46;9.20;94.60
27368;DHT22;14839;48.106;11.618;2022-09-29T07:41:12;9.20;94.60
27368;DHT22;14839;48.106;11.618;2022-09-29T07:43:38;9.10;94.60
27368;DHT22;14839;48.106;11.618;2022-09-29T07:46:05;9.10;94.60
27368;DHT22;14839;48.106;11.618;2022-09-29T07:48:31;9.30;94.60
27368;DHT22;14839;48.106;11.618;2022-09-29T07:51:06;9.30;94.60
27368;DHT22;14839;48.106;11.618;2022-09-29T07:53:33;9.40;94.60
27368;DHT22;14839;48.106;11.618;2022-09-29T07:56:07;9.40;94.60
27368;DHT22;14839;48.106;11.618;2022-09-29T07:58:34;9.50;94.60
27368;DHT22;14839;48.106;11.618;2022-09-29T08:01:00;9.40;94.60
27368;DHT22;14839;48.106;11.618;2022-09-29T08:03:27;9.40;94.60
27368;DHT22;14839;48.106;11.618;2022-09-29T08:05:54;9.20;94.60
27368;DHT22;14839;48.106;11.618;2022-09-29T08:08:22;9.30;94.60
27368;DHT22;14839;48.106;11.618;2022-09-29T08:10:47;9.40;94.60
27368;DHT22;14839;48.106;11.618;2022-09-29T08:13:13;9.40;94.60
27368;DHT22;14839;48.106;11.618;2022-09-29T08:15:38;9.70;94.60
27368;DHT22;14839;48.106;11.618;2022-09-29T08:18:04;9.60;94.60
27368;DHT22;14839;48.106;11.618;2022-09-29T08:20:30;9.80;94.60
27368;DHT22;14839;48.106;11.618;2022-09-29T08:22:57;9.80;94.60
27368;DHT22;14839;48.106;11.618;2022-09-29T08:25:23;10.00;94.60
27368;DHT22;14839;48.106;11.618;2022-09-29T08:27:50;9.70;94.60
27368;DHT22;14839;48.106;11.618;2022-09-29T08:30:16;9.80;94.60
27368;DHT22;14839;48.106;11.618;2022-09-29T08:32:42;10.20;94.60
27368;DHT22;14839;48.106;11.618;2022-09-29T08:35:08;10.30;94.60
27368;DHT22;14839;48.106;11.618;2022-09-29T08:37:34;10.50;94.60
27368;DHT22;14839;48.106;11.618;2022-09-29T08:39:59;10.60;94.60
27368;DHT22;14839;48.106;11.618;2022-09-29T08:45:23;10.60;94.60
27368;DHT22;14839;48.106;11.618;2022-09-29T08:47:50;10.80;94.60
27368;DHT22;14839;48.106;11.618;2022-09-29T08:50:32;11.00;94.60
27368;DHT22;14839;48.106;11.618;2022-09-29T08:53:09;11.00;94.60
27368;DHT22;14839;48.106;11.618;2022-09-29T08:58:27;10.60;94.60
27368;DHT22;14839;48.106;11.618;2022-09-29T09:09:22;10.10;94.60
27368;DHT22;14839;48.106;11.618;2022-09-29T09:15:03;10.00;94.60
27368;DHT22;14839;48.106;11.618;2022-09-29T09:18:12;10.00;94.60
27368;DHT22;14839;48.106;11.618;2022-09-29T09:20:52;10.10;94.60
27368;DHT22;14839;48.106;11.618;2022-09-29T09:23:38;10.30;94.60
27368;DHT22;14839;48.106;11.618;2022-09-29T09:26:09;10.30;94.60
27368;DHT22;14839;48.106;11.618;2022-09-29T09:34:00;9.90;94.60
27368;DHT22;14839;48.106;11.618;2022-09-29T09:36:41;9.80;94.60
27368;DHT22;14839;48.106;11.618;2022-09-29T09:39:20;9.80;94.60
27368;DHT22;14839;48.106;11.618;2022-09-29T09:41:49;9.60;94.60
27368;DHT22;14839;48.106;11.618;2022-09-29T09:44:31;9.60;94.60
27368;DHT22;14839;48.106;11.618;2022-09-29T09:47:01;9.60;94.60
27368;DHT22;14839;48.106;11.618;2022-09-29T09:49:33;9.50;94.60
27368;DHT22;14839;48.106;11.618;2022-09-29T09:54:54;10.10;94.60
27368;DHT22;14839;48.106;11.618;2022-09-29T10:00:03;10.80;94.60
27368;DHT22;14839;48.106;11.618;2022-09-29T10:02:30;10.60;94.60
27368;DHT22;14839;48.106;11.618;2022-09-29T10:04:56;10.70;94.60
27368;DHT22;14839;48.106;11.618;2022-09-29T10:07:24;10.50;94.60
27368;DHT22;14839;48.106;11.618;2022-09-29T10:09:52;10.50;94.60
27368;DHT22;14839;48.106;11.618;2022-09-29T10:12:20;10.20;94.60
27368;DHT22;14839;48.106;11.618;2022-09-29T10:14:58;10.30;94.60
27368;DHT22;14839;48.106;11.618;2022-09-29T10:17:28;10.00;94.60
27368;DHT22;14839;48.106;11.618;2022-09-29T10:20:00;9.90;94.60
27368;DHT22;14839;48.106;11.618;2022-09-29T10:22:28;9.90;94.60
27368;DHT22;14839;48.106;11.618;2022-09-29T10:27:41;9.80;94.60
27368;DHT22;14839;48.106;11.618;2022-09-29T10:30:40;9.90;94.60
27368;DHT22;14839;48.106;11.618;2022-09-29T10:33:13;10.10;94.60
27368;DHT22;14839;48.106;11.618;2022-09-29T10:35:42;10.00;94.60
27368;DHT22;14839;48.106;11.618;2022-09-29T10:38:17;10.10;94.60
27368;DHT22;14839;48.106;11.618;2022-09-29T10:40:58;10.20;94.60
27368;DHT22;14839;48.106;11.618;2022-09-29T10:43:47;10.10;94.60
27368;DHT22;14839;48.106;11.618;2022-09-29T10:49:16;10.30;94.60
27368;DHT22;14839;48.106;11.618;2022-09-29T10:51:57;10.20;94.60
27368;DHT22;14839;48.106;11.618;2022-09-29T10:54:25;10.10;94.60
27368;DHT22;14839;48.106;11.618;2022-09-29T10:56:52;10.00;94.60
27368;DHT22;14839;48.106;11.618;2022-09-29T10:59:19;10.00;94.60
27368;DHT22;14839;48.106;11.618;2022-09-29T11:01:58;10.10;94.60
27368;DHT22;14839;48.106;11.618;2022-09-29T11:04:27;10.30;94.60
27368;DHT22;14839;48.106;11.618;2022-09-29T11:06:54;10.20;94.60
27368;DHT22;14839;48.106;11.618;2022-09-29T11:17:48;10.30;94.60
27368;DHT22;14839;48.106;11.618;2022-09-29T11:19:59;10.20;94.60
27368;DHT22;14839;48.106;11.618;2022-09-29T11:36:41;10.50;94.60
27368;DHT22;14839;48.106;11.618;2022-09-29T11:39:27;10.60;94.60
27368;DHT22;14839;48.106;11.618;2022-09-29T11:48:02;10.80;94.60
27368;DHT22;14839;48.106;11.618;2022-09-29T11:53:18;10.90;94.60
27368;DHT22;14839;48.106;11.618;2022-09-29T11:56:22;10.80;94.60
27368;DHT22;14839;48.106;11.618;2022-09-29T11:59:05;10.80;94.60
27368;DHT22;14839;48.106;11.618;2022-09-29T12:10:24;10.50;94.60
27368;DHT22;14839;48.106;11.618;2022-09-29T12:18:13;10.60;94.60
27368;DHT22;14839;48.106;11.618;2022-09-29T12:20:42;10.50;94.60
27368;DHT22;14839;48.106;11.618;2022-09-29T12:23:13;10.60;94.60
27368;DHT22;14839;48.106;11.618;2022-09-29T12:25:51;10.50;94.60
27368;DHT22;14839;48.106;11.618;2022-09-29T12:28:22;10.60;94.60
27368;DHT22;14839;48.106;11.618;2022-09-29T12:30:54;10.40;94.60
27368;DHT22;14839;48.106;11.618;2022-09-29T12:33:32;10.40;94.60
27368;DHT22;14839;48.106;11.618;2022-09-29T12:45:40;10.20;94.60
27368;DHT22;14839;48.106;11.618;2022-09-29T12:50:56;10.20;94.60
27368;DHT22;14839;48.106;11.618;2022-09-29T12:56:26;10.10;94.60
27368;DHT22;14839;48.106;11.618;2022-09-29T12:58:59;10.10;94.60
27368;DHT22;14839;48.106;11.618;2022-09-29T13:01:33;10.40;94.60
27368;DHT22;14839;48.106;11.618;2022-09-29T13:12:27;10.60;94.60
27368;DHT22;14839;48.106;11.618;2022-09-29T13:29:16;9.80;94.60
27368;DHT22;14839;48.106;11.618;2022-09-29T13:31:44;9.80;94.60
27368;DHT22;14839;48.106;11.618;2022-09-29T13:36:48;9.90;94.60
27368;DHT22;14839;48.106;11.618;2022-09-29T13:39:23;10.00;94.60
27368;DHT22;14839;48.106;11.618;2022-09-29T13:41:52;10.10;94.60
27368;DHT22;14839;48.106;11.618;2022-09-29T13:44:25;10.00;94.60
27368;DHT22;14839;48.106;11.618;2022-09-29T13:46:53;9.70;94.60
27368;DHT22;14839;48.106;11.618;2022-09-29T14:02:38;9.70;94.60
27368;DHT22;14839;48.106;11.618;2022-09-29T14:10:38;9.50;94.60
27368;DHT22;14839;48.106;11.618;2022-09-29T14:13:24;9.40;94.60
27368;DHT22;14839;48.106;11.618;2022-09-29T14:18:53;9.50;94.60
27368;DHT22;14839;48.106;11.618;2022-09-29T14:21:55;9.40;94.60
27368;DHT22;14839;48.106;11.618;2022-09-29T14:29:48;9.40;94.60
27368;DHT22;14839;48.106;11.618;2022-09-29T14:32:18;9.30;94.60
27368;DHT22;14839;48.106;11.618;2022-09-29T14:34:45;9.20;94.60
27368;DHT22;14839;48.106;11.618;2022-09-29T14:37:22;9.20;94.60
27368;DHT22;14839;48.106;11.618;2022-09-29T14:39:49;9.30;94.60
27368;DHT22;14839;48.106;11.618;2022-09-29T14:42:35;9.20;94.60
27368;DHT22;14839;48.106;11.618;2022-09-29T14:45:02;9.20;94.60
27368;DHT22;14839;48.106;11.618;2022-09-29T14:48:01;9.10;94.60
27368;DHT22;14839;48.106;11.618;2022-09-29T14:50:52;9.00;94.60
27368;DHT22;14839;48.106;11.618;2022-09-29T14:59:26;8.90;94.60
27368;DHT22;14839;48.106;11.618;2022-09-29T15:04:41;9.00;94.60
27368;DHT22;14839;48.106;11.618;2022-09-29T15:07:12;9.10;94.60
27368;DHT22;14839;48.106;11.618;2022-09-29T15:09:44;9.10;94.60
27368;DHT22;14839;48.106;11.618;2022-09-29T15:12:17;9.00;94.60
27368;DHT22;14839;48.106;11.618;2022-09-29T15:14:44;9.00;94.60
27368;DHT22;14839;48.106;11.618;2022-09-29T15:20:14;9.10;94.60
27368;DHT22;14839;48.106;11.618;2022-09-29T15:28:11;9.20;94.60
27368;DHT22;14839;48.106;11.618;2022-09-29T15:30:39;9.00;94.60
27368;DHT22;14839;48.106;11.618;2022-09-29T15:33:29;8.90;94.60
27368;DHT22;14839;48.106;11.618;2022-09-29T15:40:56;8.90;94.60
27368;DHT22;14839;48.106;11.618;2022-09-29T15:43:29;8.90;94.60
27368;DHT22;14839;48.106;11.618;2022-09-29T15:45:59;9.00;94.60
27368;DHT22;14839;48.106;11.618;2022-09-29T15:48:26;9.00;94.60
27368;DHT22;14839;48.106;11.618;2022-09-29T15:50:52;9.00;94.60
27368;DHT22;14839;48.106;11.618;2022-09-29T15:53:29;9.00;94.60
27368;DHT22;14839;48.106;11.618;2022-09-29T15:55:57;8.90;94.60
27368;DHT22;14839;48.106;11.618;2022-09-29T16:01:03;8.90;94.60
27368;DHT22;14839;48.106;11.618;2022-09-29T16:03:37;8.70;94.60
27368;DHT22;14839;48.106;11.618;2022-09-29T16:06:18;8.70;94.60
27368;DHT22;14839;48.106;11.618;2022-09-29T16:08:46;8.70;94.60
27368;DHT22;14839;48.106;11.618;2022-09-29T16:11:21;8.70;94.60
27368;DHT22;14839;48.106;11.618;2022-09-29T16:13:50;8.80;94.60
27368;DHT22;14839;48.106;11.618;2022-09-29T16:16:25;8.80;94.60
27368;DHT22;14839;48.106;11.618;2022-09-29T16:18:52;8.80;94.60
27368;DHT22;14839;48.106;11.618;2022-09-29T16:21:22;8.80;94.60
27368;DHT22;14839;48.106;11.618;2022-09-29T16:24:09;8.70;94.60
27368;DHT22;14839;48.106;11.618;2022-09-29T16:26:37;8.70;94.60
27368;DHT22;14839;48.106;11.618;2022-09-29T16:31:48;8.80;94.60
27368;DHT22;14839;48.106;11.618;2022-09-29T16:36:51;8.90;94.60
27368;DHT22;14839;48.106;11.618;2022-09-29T16:39:19;8.90;94.60
27368;DHT22;14839;48.106;11.618;2022-09-29T16:41:50;8.80;94.60
27368;DHT22;14839;48.106;11.618;2022-09-29T16:44:17;8.80;94.60
27368;DHT22;14839;48.106;11.618;2022-09-29T16:46:53;8.70;94.60
27368;DHT22;14839;48.106;11.618;2022-09-29T16:51:47;9.00;94.60
27368;DHT22;14839;48.106;11.618;2022-09-29T16:54:31;9.10;94.60
27368;DHT22;14839;48.106;11.618;2022-09-29T16:59:45;9.10;94.60
27368;DHT22;14839;48.106;11.618;2022-09-29T17:02:12;9.20;94.60
27368;DHT22;14839;48.106;11.618;2022-09-29T17:04:38;9.10;94.60
27368;DHT22;14839;48.106;11.618;2022-09-29T17:07:04;9.10;94.60
27368;DHT22;14839;48.106;11.618;2022-09-29T17:09:29;9.10;94.60
27368;DHT22;14839;48.106;11.618;2022-09-29T17:11:55;9.00;94.60
27368;DHT22;14839;48.106;11.618;2022-09-29T17:14:21;8.90;94.60
27368;DHT22;14839;48.106;11.618;2022-09-29T17:16:48;8.90;94.60
27368;DHT22;14839;48.106;11.618;2022-09-29T17:19:16;8.80;94.60
27368;DHT22;14839;48.106;11.618;2022-09-29T17:21:42;8.80;94.60
27368;DHT22;14839;48.106;11.618;2022-09-29T17:24:08;8.90;94.60
27368;DHT22;14839;48.106;11.618;2022-09-29T17:26:41;8.90;94.60
27368;DHT22;14839;48.106;11.618;2022-09-29T17:29:25;9.00;94.60
27368;DHT22;14839;48.106;11.618;2022-09-29T17:31:51;9.00;94.60
27368;DHT22;14839;48.106;11.618;2022-09-29T17:34:17;9.00;94.60
27368;DHT22;14839;48.106;11.618;2022-09-29T17:36:51;9.10;94.60
27368;DHT22;14839;48.106;11.618;2022-09-29T17:39:17;9.20;94.60
27368;DHT22;14839;48.106;11.618;2022-09-29T17:41:42;9.20;94.60
27368;DHT22;14839;48.106;11.618;2022-09-29T17:44:08;9.20;94.60
27368;DHT22;14839;48.106;11.618;2022-09-29T17:46:36;9.20;94.60
27368;DHT22;14839;48.106;11.618;2022-09-29T17:49:02;9.20;94.60
27368;DHT22;14839;48.106;11.618;2022-09-29T17:51:28;9.10;94.60
27368;DHT22;14839;48.106;11.618;2022-09-29T17:53:54;9.10;94.60
27368;DHT22;14839;48.106;11.618;2022-09-29T17:56:22;9.00;94.60
27368;DHT22;14839;48.106;11.618;2022-09-29T17:58:54;9.00;94.60
27368;DHT22;14839;48.106;11.618;2022-09-29T18:01:21;8.90;94.60
27368;DHT22;14839;48.106;11.618;2022-09-29T18:03:48;8.80;94.60
27368;DHT22;14839;48.106;11.618;2022-09-29T18:06:19;8.60;94.60
27368;DHT22;14839;48.106;11.618;2022-09-29T18:08:52;8.60;94.60
27368;DHT22;14839;48.106;11.618;2022-09-29T18:11:22;8.60;94.60
27368;DHT22;14839;48.106;11.618;2022-09-29T18:13:48;8.60;94.60
27368;DHT22;14839;48.106;11.618;2022-09-29T18:16:19;8.60;94.60
27368;DHT22;14839;48.106;11.618;2022-09-29T18:18:46;8.70;94.60
27368;DHT22;14839;48.106;11.618;2022-09-29T18:21:12;8.90;94.60
27368;DHT22;14839;48.106;11.618;2022-09-29T18:23:38;8.90;94.60
27368;DHT22;14839;48.106;11.618;2022-09-29T18:26:05;9.00;94.60
27368;DHT22;14839;48.106;11.618;2022-09-29T18:28:31;9.10;94.60
27368;DHT22;14839;48.106;11.618;2022-09-29T18:31:03;9.10;94.60
27368;DHT22;14839;48.106;11.618;2022-09-29T18:33:33;9.10;94.60
27368;DHT22;14839;48.106;11.618;2022-09-29T18:35:59;9.10;94.60
27368;DHT22;14839;48.106;11.618;2022-09-29T18:38:26;9.00;94.60
27368;DHT22;14839;48.106;11.618;2022-09-29T18:40:53;8.90;94.60
27368;DHT22;14839;48.106;11.618;2022-09-29T18:43:19;8.90;94.60
27368;DHT22;14839;48.106;11.618;2022-09-29T18:45:49;9.00;94.60
27368;DHT22;14839;48.106;11.618;2022-09-29T18:48:17;9.00;94.60
27368;DHT22;14839;48.106;11.618;2022-09-29T18:50:44;8.80;94.60
27368;DHT22;14839;48.106;11.618;2022-09-29T18:53:13;8.70;94.60
27368;DHT22;14839;48.106;11.618;2022-09-29T18:55:39;8.60;94.60
27368;DHT22;14839;48.106;11.618;2022-09-29T18:58:18;8.50;94.60
27368;DHT22;14839;48.106;11.618;2022-09-29T19:00:47;8.40;94.60
27368;DHT22;14839;48.106;11.618;2022-09-29T19:03:16;8.50;94.60
27368;DHT22;14839;48.106;11.618;2022-09-29T19:05:43;8.40;94.60
27368;DHT22;14839;48.106;11.618;2022-09-29T19:08:10;8.40;94.60
27368;DHT22;14839;48.106;11.618;2022-09-29T19:10:45;8.40;94.60
27368;DHT22;14839;48.106;11.618;2022-09-29T19:13:11;8.40;94.60
27368;DHT22;14839;48.106;11.618;2022-09-29T19:15:40;8.40;94.60
27368;DHT22;14839;48.106;11.618;2022-09-29T19:18:07;8.40;94.60
27368;DHT22;14839;48.106;11.618;2022-09-29T19:20:34;8.50;94.60
27368;DHT22;14839;48.106;11.618;2022-09-29T19:23:00;8.50;94.60
27368;DHT22;14839;48.106;11.618;2022-09-29T19:25:35;8.40;94.60
27368;DHT22;14839;48.106;11.618;2022-09-29T19:28:03;8.40;94.60
27368;DHT22;14839;48.106;11.618;2022-09-29T19:30:39;8.30;94.60
27368;DHT22;14839;48.106;11.618;2022-09-29T19:33:08;8.30;94.60
27368;DHT22;14839;48.106;11.618;2022-09-29T19:35:34;8.20;94.60
27368;DHT22;14839;48.106;11.618;2022-09-29T19:38:00;8.20;94.60
27368;DHT22;14839;48.106;11.618;2022-09-29T19:40:32;8.30;94.60
27368;DHT22;14839;48.106;11.618;2022-09-29T19:42:59;8.20;94.60
27368;DHT22;14839;48.106;11.618;2022-09-29T19:45:29;8.20;94.60
27368;DHT22;14839;48.106;11.618;2022-09-29T19:47:55;8.20;94.60
27368;DHT22;14839;48.106;11.618;2022-09-29T19:50:22;8.30;94.60
27368;DHT22;14839;48.106;11.618;2022-09-29T19:53:06;8.30;94.60
27368;DHT22;14839;48.106;11.618;2022-09-29T19:55:37;8.20;94.60
27368;DHT22;14839;48.106;11.618;2022-09-29T19:58:03;8.20;94.60
27368;DHT22;14839;48.106;11.618;2022-09-29T20:00:29;8.20;94.60
27368;DHT22;14839;48.106;11.618;2022-09-29T20:02:55;8.10;94.60
27368;DHT22;14839;48.106;11.618;2022-09-29T20:05:21;8.10;94.60
27368;DHT22;14839;48.106;11.618;2022-09-29T20:07:46;8.10;94.60
27368;DHT22;14839;48.106;11.618;2022-09-29T20:10:14;8.00;94.60
27368;DHT22;14839;48.106;11.618;2022-09-29T20:12:41;8.00;94.60
27368;DHT22;14839;48.106;11.618;2022-09-29T20:15:08;8.00;94.60
27368;DHT22;14839;48.106;11.618;2022-09-29T20:17:36;8.00;94.60
27368;DHT22;14839;48.106;11.618;2022-09-29T20:20:02;8.00;94.60
27368;DHT22;14839;48.106;11.618;2022-09-29T20:22:28;8.00;94.60
27368;DHT22;14839;48.106;11.618;2022-09-29T20:24:56;8.00;94.60
27368;DHT22;14839;48.106;11.618;2022-09-29T20:27:22;8.10;94.60
27368;DHT22;14839;48.106;11.618;2022-09-29T20:29:48;8.10;94.60
27368;DHT22;14839;48.106;11.618;2022-09-29T20:32:17;8.10;94.60
27368;DHT22;14839;48.106;11.618;2022-09-29T20:34:43;8.10;94.60
27368;DHT22;14839;48.106;11.618;2022-09-29T20:37:09;8.00;94.60
27368;DHT22;14839;48.106;11.618;2022-09-29T20:39:37;8.00;94.60
27368;DHT22;14839;48.106;11.618;2022-09-29T20:42:02;8.00;94.60
27368;DHT22;14839;48.106;11.618;2022-09-29T20:44:28;8.00;94.60
27368;DHT22;14839;48.106;11.618;2022-09-29T20:46:54;8.10;94.60
27368;DHT22;14839;48.106;11.618;2022-09-29T20:49:20;8.10;94.60
27368;DHT22;14839;48.106;11.618;2022-09-29T20:51:46;8.20;94.60
27368;DHT22;14839;48.106;11.618;2022-09-29T20:54:12;8.20;94.60
27368;DHT22;14839;48.106;11.618;2022-09-29T20:56:38;8.20;94.60
27368;DHT22;14839;48.106;11.618;2022-09-29T20:59:13;8.20;94.60
27368;DHT22;14839;48.106;11.618;2022-09-29T21:01:39;8.20;94.60
27368;DHT22;14839;48.106;11.618;2022-09-29T21:04:08;8.20;94.60
27368;DHT22;14839;48.106;11.618;2022-09-29T21:06:36;8.20;94.60
27368;DHT22;14839;48.106;11.618;2022-09-29T21:09:04;8.20;94.60
27368;DHT22;14839;48.106;11.618;2022-09-29T21:11:30;8.20;94.60
27368;DHT22;14839;48.106;11.618;2022-09-29T21:14:03;8.20;94.60
27368;DHT22;14839;48.106;11.618;2022-09-29T21:16:29;8.20;94.60
27368;DHT22;14839;48.106;11.618;2022-09-29T21:18:54;8.10;94.60
27368;DHT22;14839;48.106;11.618;2022-09-29T21:21:20;8.10;94.60
27368;DHT22;14839;48.106;11.618;2022-09-29T21:23:46;8.10;94.60
27368;DHT22;14839;48.106;11.618;2022-09-29T21:26:14;8.20;94.60
27368;DHT22;14839;48.106;11.618;2022-09-29T21:28:42;8.30;94.60
